Davinopolis, Brazil
Current Conditions -  °F | °C
As of 12:00 AM on Wednesday 22 Oct 2014 (Local Time) from SBGO Reporting Station
Thunderstorm Thunderstorm  
Wind Chill: 81°   Ceiling: 7000
Heat Index: 81°   Visibility: 6mi
Dew Point: 57°   Wind: 3mph
Humidity: 45%   Direction: 340°NNW
Pressure: 29.97"   Gusts: NA
Location:  15.98°S, 50.12°W
Report Text: SBGO 220200Z 34003KT 9999 VCTS FEW040CB BKN070 27/14 Q1015
Loading
Personal Weather Stations






























Interactive Weather Map
Tropical Storm Tracking
New forecast layout! Learn more

10-Day Weather Forecast

Advertisements
Track Severe Weather on mobile